Telemetry
Timestamp Node Air Util TX Channel Util Battery Uptime Voltage Current Barometric Pressure Relative Humidity Temperature Gas Resistance
2026-05-06 11:35:13 RF67 0.05% 5.9% 101% 65 3.44 V
2026-05-06 11:35:13 RF67 0.05% 5.9% 101% 65 3.44 V
2026-05-06 11:35:12 RF67 0.05% 5.9% 101% 65 3.44 V
2026-05-06 11:35:07 RF67 0.05% 5.9% 101% 65 3.44 V
2026-05-06 11:35:07 RF67 0.05% 5.9% 101% 65 3.44 V
2026-05-06 11:35:07 RF67 0.05% 5.9% 101% 65 3.44 V
2026-05-06 11:34:15 GR02 2.32% 3.0% 101% 2941 4.49 V
2026-05-06 11:34:15 GR02 2.32% 3.0% 101% 2941 4.49 V
2026-05-06 11:34:15 GR02 2.32% 3.0% 101% 2941 4.49 V
2026-05-06 11:34:12 RF06 2.0% 8.2% 101% 177912 -0.0 V
2026-05-06 11:34:10 RF06 2.0% 8.2% 101% 177912 -0.0 V
2026-05-06 11:34:10 GR02 2.32% 3.0% 101% 2941 4.49 V
2026-05-06 11:34:10 GR02 2.32% 3.0% 101% 2941 4.49 V
2026-05-06 11:34:10 GR02 2.32% 3.0% 101% 2941 4.49 V
2026-05-06 11:34:09 RF06 2.0% 8.2% 101% 177912 -0.0 V
2026-05-06 11:34:06 RF06 2.0% 8.2% 101% 177912 -0.0 V
2026-05-06 11:34:06 RF06 2.0% 8.2% 101% 177912 -0.0 V
2026-05-06 11:34:03 RF06 2.0% 8.2% 101% 177912 -0.0 V
2026-05-06 11:34:03 RF06 2.0% 8.2% 101% 177912 -0.0 V
2026-05-06 11:34:03 RF06 2.0% 8.2% 101% 177912 -0.0 V
2026-05-06 11:33:28 21a9 1018.44 hPa 43.01% 17.38°C
2026-05-06 11:33:28 21a9 1018.44 hPa 43.01% 17.38°C
2026-05-06 11:33:03 21a9 0.37% 1.7% 66% 687741 3.85 V
2026-05-06 11:33:02 21a9 0.37% 1.7% 66% 687741 3.85 V
2026-05-06 11:32:53 LAM2 0.06% 17.8% 101% 178 4.24 V
2026-05-06 11:32:52 LAM2 0.06% 17.8% 101% 178 4.24 V
2026-05-06 11:32:48 LAM2 0.06% 17.8% 101% 178 4.24 V
2026-05-06 11:32:48 LAM2 0.06% 17.8% 101% 178 4.24 V
2026-05-06 11:32:48 LAM2 0.06% 17.8% 101% 178 4.24 V
2026-05-06 11:32:44 LAM2 0.06% 17.8% 101% 178 4.24 V
2026-05-06 11:32:44 LAM2 0.06% 17.8% 101% 178 4.24 V
2026-05-06 11:32:44 LAM2 0.06% 17.8% 101% 178 4.24 V
2026-05-06 11:32:44 LAM2 0.06% 17.8% 101% 178 4.24 V
2026-05-06 11:31:21 RF67 0.05% 11.0% 101% 65 3.44 V
2026-05-06 11:31:21 RF67 0.05% 11.0% 101% 65 3.44 V
2026-05-06 11:31:21 RF67 0.05% 11.0% 101% 65 3.44 V
2026-05-06 11:31:01 7274 0.45% 0.0% 100% 7693965 4.11 V
2026-05-06 11:31:01 7274 0.45% 0.0% 100% 7693965 4.11 V
2026-05-06 11:31:01 7274 0.45% 0.0% 100% 7693965 4.11 V
2026-05-06 11:30:23 LRX1 1.36% 7.1% 80% 48016 3.99 V
2026-05-06 11:30:22 LRX1 1.36% 7.1% 80% 48016 3.99 V
2026-05-06 11:30:16 LRX1 1.36% 7.1% 80% 48016 3.99 V
2026-05-06 11:30:16 LRX1 1.36% 7.1% 80% 48016 3.99 V
2026-05-06 11:30:11 LRX1 1.36% 7.1% 80% 48016 3.99 V
2026-05-06 11:30:10 LRX1 1.36% 7.1% 80% 48016 3.99 V
2026-05-06 11:30:09 LRX1 1.36% 7.1% 80% 48016 3.99 V
2026-05-06 11:29:42 LRX1 1008.93 hPa 56.61% 21.8°C
2026-05-06 11:29:41 LRX1 1008.93 hPa 56.61% 21.8°C
2026-05-06 11:29:40 LRX1 1008.93 hPa 56.61% 21.8°C
2026-05-06 11:29:40 LRX1 1008.93 hPa 56.61% 21.8°C
2026-05-06 11:27:47 RF67 0.06% 9.4% 101% 65 3.44 V
2026-05-06 11:27:47 RF67 0.06% 9.4% 101% 65 3.44 V
2026-05-06 11:27:43 MELK 0.05% 0.0% 97% 4332772 4.16 V
2026-05-06 11:27:41 MELK 0.05% 0.0% 97% 4332772 4.16 V
2026-05-06 11:27:41 MELK 0.05% 0.0% 97% 4332772 4.16 V
2026-05-06 11:27:40 MELK 0.05% 0.0% 97% 4332772 4.16 V
2026-05-06 11:27:39 MELK 0.05% 0.0% 97% 4332772 4.16 V
2026-05-06 11:27:39 MELK 0.05% 0.0% 97% 4332772 4.16 V
2026-05-06 11:27:39 MELK 0.05% 0.0% 97% 4332772 4.16 V
2026-05-06 11:27:36 RF67 0.06% 9.4% 101% 65 3.44 V
2026-05-06 11:27:35 RF67 0.06% 9.4% 101% 65 3.44 V
2026-05-06 11:27:35 RF67 0.06% 9.4% 101% 65 3.44 V
2026-05-06 11:27:25 SMWS 0.97% 1.9% 43% 694158 3.67 V
2026-05-06 11:27:25 SMWS 0.97% 1.9% 43% 694158 3.67 V
2026-05-06 11:26:48 LMBs 22.12°C
2026-05-06 11:26:48 LMBs 22.12°C
2026-05-06 11:26:04 LMGB 0.07% 0.0% 101% 23838 -0.0 V
2026-05-06 11:26:03 LMGB 0.07% 0.0% 101% 23838 -0.0 V
2026-05-06 11:25:54 2625 0.36% 0.0% 100% 820924 4.19 V
2026-05-06 11:25:54 2625 0.36% 0.0% 100% 820924 4.19 V
2026-05-06 11:25:12 ah01 0.73% 3.0% 94% 1838727 4.12 V
2026-05-06 11:25:12 ah01 0.73% 3.0% 94% 1838727 4.12 V
2026-05-06 11:25:12 ah01 0.73% 3.0% 94% 1838727 4.12 V
2026-05-06 11:25:10 ah01 0.73% 3.0% 94% 1838727 4.12 V
2026-05-06 11:25:09 ah01 0.73% 3.0% 94% 1838727 4.12 V
2026-05-06 11:25:09 ah01 0.73% 3.0% 94% 1838727 4.12 V
2026-05-06 11:24:35 Wdst 1.41% 4.4% 72% 4277869 3.91 V
2026-05-06 11:24:34 Wdst 1.41% 4.4% 72% 4277869 3.91 V
2026-05-06 11:24:34 Wdst 1.41% 4.4% 72% 4277869 3.91 V
2026-05-06 11:24:31 IIXF 848.84 hPa 35.39% 23.32°C 181.95 Ohm
2026-05-06 11:24:31 IIXF 848.84 hPa 35.39% 23.32°C 181.95 Ohm
2026-05-06 11:24:03 IIXF 0.75% 1.2% 101% 176109 4.28 V
2026-05-06 11:24:03 IIXF 0.75% 1.2% 101% 176109 4.28 V
2026-05-06 11:23:34 RF67 0.03% 3.8% 101% 65 3.44 V
2026-05-06 11:23:34 RF67 0.03% 3.8% 101% 65 3.44 V
2026-05-06 11:23:26 RF67 0.03% 3.8% 101% 65 3.44 V
2026-05-06 11:23:26 RF67 0.03% 3.8% 101% 65 3.44 V
2026-05-06 11:23:24 RF67 0.03% 3.8% 101% 65 3.44 V
2026-05-06 11:23:23 RF67 0.03% 3.8% 101% 65 3.44 V
2026-05-06 11:23:20 RF67 0.03% 3.8% 101% 65 3.44 V
2026-05-06 11:23:19 RF67 0.03% 3.8% 101% 65 3.44 V
2026-05-06 11:23:19 RF67 0.03% 3.8% 101% 65 3.44 V
2026-05-06 11:22:19 Gert 2.51% 4.1% 79% 242605 3.98 V
2026-05-06 11:22:18 Gert 2.51% 4.1% 79% 242605 3.98 V
2026-05-06 11:21:59 PcL1 0.11% 0.0% 100% 58536 4.2 V
2026-05-06 11:21:59 PcL1 0.11% 0.0% 100% 58536 4.2 V
2026-05-06 11:21:44 Gert 2.51% 4.1% 79% 242605 3.98 V
2026-05-06 11:21:44 Gert 2.51% 4.1% 79% 242605 3.98 V
2026-05-06 11:21:33 Gert 2.51% 4.1% 79% 242605 3.98 V
2026-05-06 11:21:31 Gert 2.51% 4.1% 79% 242605 3.98 V
2026-05-06 11:21:31 Gert 2.51% 4.1% 79% 242605 3.98 V
2026-05-06 11:21:27 Gert 2.51% 4.1% 79% 242605 3.98 V
2026-05-06 11:21:27 Gert 2.51% 4.1% 79% 242605 3.98 V
2026-05-06 11:21:27 Gert 2.51% 4.1% 79% 242605 3.98 V
2026-05-06 11:20:42 CLA1 3.82% 9.3% 101% 688675 4.11 V
2026-05-06 11:20:42 CLA1 3.82% 9.3% 101% 688675 4.11 V
2026-05-06 11:20:42 CLA1 3.82% 9.3% 101% 688675 4.11 V
2026-05-06 11:20:40 CLA1 3.82% 9.3% 101% 688675 4.11 V
2026-05-06 11:20:40 CLA1 3.82% 9.3% 101% 688675 4.11 V
2026-05-06 11:20:40 CLA1 3.82% 9.3% 101% 688675 4.11 V
2026-05-06 11:19:48 HAM2 3.01% 10.9% 91% 1098210 4.06 V
2026-05-06 11:19:48 HAM2 3.01% 10.9% 91% 1098210 4.06 V
2026-05-06 11:19:43 HAM2 3.01% 10.9% 91% 1098210 4.06 V
2026-05-06 11:19:42 HAM2 3.01% 10.9% 91% 1098210 4.06 V
2026-05-06 11:19:37 HAM2 3.01% 10.9% 91% 1098210 4.06 V
2026-05-06 11:19:30 HAM2 3.01% 10.9% 91% 1098210 4.06 V
2026-05-06 11:19:28 HAM2 3.01% 10.9% 91% 1098210 4.06 V
2026-05-06 11:19:28 HAM2 3.01% 10.9% 91% 1098210 4.06 V
2026-05-06 11:19:27 HAM2 3.01% 10.9% 91% 1098210 4.06 V
2026-05-06 11:18:58 RF67 0.05% 6.0% 101% 65 3.45 V
2026-05-06 11:18:58 RF67 0.05% 6.0% 101% 65 3.45 V
2026-05-06 11:18:58 RF67 0.05% 6.0% 101% 65 3.45 V
2026-05-06 11:18:57 RF67 0.05% 6.0% 101% 65 3.45 V
2026-05-06 11:18:55 RF67 0.05% 6.0% 101% 65 3.45 V
2026-05-06 11:18:54 RF67 0.05% 6.0% 101% 65 3.45 V
2026-05-06 11:18:54 RF67 0.05% 6.0% 101% 65 3.45 V
2026-05-06 11:18:53 RF67 0.05% 6.0% 101% 65 3.45 V
2026-05-06 11:16:08 JR70 0.31% 2.8% 88% 6060467 4.04 V
2026-05-06 11:16:08 JR70 0.31% 2.8% 88% 6060467 4.04 V
2026-05-06 11:15:56 ah02 100.0% 17.29°C
2026-05-06 11:15:54 ah02 100.0% 17.29°C
2026-05-06 11:15:53 ah02 100.0% 17.29°C
2026-05-06 11:15:53 ah02 100.0% 17.29°C
2026-05-06 11:15:53 ah02 100.0% 17.29°C
2026-05-06 11:15:28 ah02 0.04% 17.7% 68% 61 3.88 V
2026-05-06 11:15:26 ah02 0.04% 17.7% 68% 61 3.88 V
2026-05-06 11:15:26 ah02 0.04% 17.7% 68% 61 3.88 V
2026-05-06 11:15:26 ah02 0.04% 17.7% 68% 61 3.88 V
2026-05-06 11:15:25 ah02 0.04% 17.7% 68% 61 3.88 V
2026-05-06 11:15:23 RF67 0.14% 18.2% 101% 65 3.44 V
2026-05-06 11:15:23 RF67 0.14% 18.2% 101% 65 3.44 V
2026-05-06 11:15:10 c238 0.02% 1.5% 101% 45 4.27 V
2026-05-06 11:15:10 c238 0.02% 1.5% 101% 45 4.27 V
2026-05-06 11:15:08 RF67 0.14% 18.2% 101% 65 3.44 V
2026-05-06 11:15:08 RF67 0.14% 18.2% 101% 65 3.44 V
2026-05-06 11:15:08 RF67 0.14% 18.2% 101% 65 3.44 V
2026-05-06 11:14:51 LAM2 0.04% 17.3% 101% 178 4.26 V
2026-05-06 11:14:50 LAM2 0.04% 17.3% 101% 178 4.26 V
2026-05-06 11:14:50 LAM2 0.04% 17.3% 101% 178 4.26 V
2026-05-06 11:11:29 PMT2 22.54°C
2026-05-06 11:11:25 PMT2 22.54°C
2026-05-06 11:11:24 PMT2 22.54°C
2026-05-06 11:11:24 PMT2 22.54°C
2026-05-06 11:11:22 RF67 0.07% 11.5% 101% 65 3.44 V
2026-05-06 11:11:22 RF67 0.07% 11.5% 101% 65 3.44 V
2026-05-06 11:11:22 RF67 0.07% 11.5% 101% 65 3.44 V
2026-05-06 11:11:01 2369 1.4% 12.4% 6% 15187 3.22 V
2026-05-06 11:10:59 2369 1.4% 12.4% 6% 15187 3.22 V
2026-05-06 11:10:59 2369 1.4% 12.4% 6% 15187 3.22 V
2026-05-06 11:10:56 2369 1.4% 12.4% 6% 15187 3.22 V
2026-05-06 11:10:56 2369 1.4% 12.4% 6% 15187 3.22 V
2026-05-06 11:10:56 2369 1.4% 12.4% 6% 15187 3.22 V
2026-05-06 11:10:29 MJTM 2.14% 4.1% 100% 1648606 4.2 V
2026-05-06 11:10:25 MJTM 2.14% 4.1% 100% 1648606 4.2 V
2026-05-06 11:10:23 MJTM 2.14% 4.1% 100% 1648606 4.2 V
2026-05-06 11:10:23 MJTM 2.14% 4.1% 100% 1648606 4.2 V
2026-05-06 11:10:23 MJTM 2.14% 4.1% 100% 1648606 4.2 V
2026-05-06 11:10:13 MJTH 1.7% 2.2% 78% 1698991 3.98 V
2026-05-06 11:10:12 MJTH 1.7% 2.2% 78% 1698991 3.98 V
2026-05-06 11:10:04 MJTH 1.7% 2.2% 78% 1698991 3.98 V
2026-05-06 11:10:04 MJTH 1.7% 2.2% 78% 1698991 3.98 V
2026-05-06 11:10:03 MJTH 1.7% 2.2% 78% 1698991 3.98 V
2026-05-06 11:10:03 MJTH 1.7% 2.2% 78% 1698991 3.98 V
2026-05-06 11:09:59 MJTH 1.7% 2.2% 78% 1698991 3.98 V
2026-05-06 11:09:59 MJTH 1.7% 2.2% 78% 1698991 3.98 V
2026-05-06 11:08:12 SMWS 0.94% 0.9% 42% 693035 3.65 V
2026-05-06 11:08:12 SMWS 0.94% 0.9% 42% 693035 3.65 V
2026-05-06 11:07:37 RF67 0.11% 16.3% 101% 65 3.44 V
2026-05-06 11:07:36 RF67 0.11% 16.3% 101% 65 3.44 V
2026-05-06 11:07:36 2-D 0.55% 101% 12827582 4.22 V
2026-05-06 11:07:36 RF67 0.11% 16.3% 101% 65 3.44 V
2026-05-06 11:07:36 2-D 0.55% 101% 12827582 4.22 V
2026-05-06 11:07:26 ah03
2026-05-06 11:07:25 ah03
2026-05-06 11:07:25 ah03
2026-05-06 11:07:25 ah03
2026-05-06 11:06:31 IIXF 849.03 hPa 35.11% 23.05°C 181.95 Ohm
2026-05-06 11:06:31 IIXF 849.03 hPa 35.11% 23.05°C 181.95 Ohm
2026-05-06 11:06:03 IIXF 0.73% 0.6% 101% 175029 4.28 V
2026-05-06 11:06:03 IIXF 0.73% 0.6% 101% 175029 4.28 V
2026-05-06 11:04:50 RLSC 999.8 hPa 76.16% 14.29°C
2026-05-06 11:04:50 RLSC 999.8 hPa 76.16% 14.29°C
2026-05-06 11:04:46 RF01 0.7% 5.1% 101% 312916 4.25 V
2026-05-06 11:04:46 RF01 0.7% 5.1% 101% 312916 4.25 V
2026-05-06 11:04:45 RF01 0.7% 5.1% 101% 312916 4.25 V
2026-05-06 11:04:42 RF01 0.7% 5.1% 101% 312916 4.25 V
2026-05-06 11:04:42 RF01 0.7% 5.1% 101% 312916 4.25 V
2026-05-06 11:04:42 RF01 0.7% 5.1% 101% 312916 4.25 V
2026-05-06 11:03:51 RF67 0.05% 9.8% 101% 65 3.44 V
2026-05-06 11:03:51 RF67 0.05% 9.8% 101% 65 3.44 V
2026-05-06 11:03:50 RF67 0.05% 9.8% 101% 65 3.44 V
2026-05-06 11:03:45 PTRH 0.31% 0.0% 55% 855715 3.76 V
2026-05-06 11:03:45 PTRH 0.31% 0.0% 55% 855715 3.76 V
2026-05-06 11:03:19 PTRH 0.31% 0.0% 55% 855715 3.76 V
2026-05-06 11:03:19 PTRH 0.31% 0.0% 55% 855715 3.76 V
2026-05-06 11:02:48 RX01 0.04% 3.2% 101% 10882 0.0 V
2026-05-06 11:02:47 RX01 0.04% 3.2% 101% 10882 0.0 V
2026-05-06 11:01:06 ZS1G 0.06% 12.1% 101% 46 4.2 V
2026-05-06 11:01:05 ZS1G 0.06% 12.1% 101% 46 4.2 V
2026-05-06 11:01:04 ZS1G 0.06% 12.1% 101% 46 4.2 V
2026-05-06 11:00:59 ZS1G 0.06% 12.1% 101% 46 4.2 V
2026-05-06 11:00:58 ZS1G 0.06% 12.1% 101% 46 4.2 V
2026-05-06 11:00:58 ZS1G 0.06% 12.1% 101% 46 4.2 V
2026-05-06 11:00:27 e536 0.21% 2.0% 92% 47468389 4.09 V
2026-05-06 11:00:24 LRX1 1.58% 18.5% 80% 46216 3.99 V
2026-05-06 11:00:24 LRX1 1.58% 18.5% 80% 46216 3.99 V
2026-05-06 11:00:21 LRX1 1.58% 18.5% 80% 46216 3.99 V
2026-05-06 11:00:20 LRX1 1.58% 18.5% 80% 46216 3.99 V
2026-05-06 11:00:14 LRX1 1.58% 18.5% 80% 46216 3.99 V
2026-05-06 11:00:13 LRX1 1.58% 18.5% 80% 46216 3.99 V
2026-05-06 11:00:11 LRX1 1.58% 18.5% 80% 46216 3.99 V
2026-05-06 11:00:10 LRX1 1.58% 18.5% 80% 46216 3.99 V
2026-05-06 11:00:09 LRX1 1.58% 18.5% 80% 46216 3.99 V
2026-05-06 11:00:07 RF67 0.1% 14.1% 101% 65 3.44 V
2026-05-06 11:00:07 RF67 0.1% 14.1% 101% 65 3.44 V
2026-05-06 11:00:07 RF67 0.1% 14.1% 101% 65 3.44 V
2026-05-06 10:59:43 LRX1 1009.3 hPa 57.1% 22.23°C
2026-05-06 10:59:40 LRX1 1009.3 hPa 57.1% 22.23°C
2026-05-06 10:59:40 LRX1 1009.3 hPa 57.1% 22.23°C
2026-05-06 10:59:39 LRX1 1009.3 hPa 57.1% 22.23°C
2026-05-06 10:59:39 LRX1 1009.3 hPa 57.1% 22.23°C
2026-05-06 10:59:27 LMBr 2.9% 7.1% 95% 3758971 4.13 V
2026-05-06 10:59:26 LMBr 2.9% 7.1% 95% 3758971 4.13 V
2026-05-06 10:59:26 LMBr 2.9% 7.1% 95% 3758971 4.13 V
2026-05-06 10:59:25 LMBr 2.9% 7.1% 95% 3758971 4.13 V
2026-05-06 10:59:25 LMBr 2.9% 7.1% 95% 3758971 4.13 V
2026-05-06 10:59:24 LMBr 2.9% 7.1% 95% 3758971 4.13 V
2026-05-06 10:59:16 RF06 2.29% 0.0% 101% 175812 -0.0 V
2026-05-06 10:59:08 RF06 2.29% 0.0% 101% 175812 -0.0 V
2026-05-06 10:59:07 RF06 2.29% 0.0% 101% 175812 -0.0 V
2026-05-06 10:59:07 RF06 2.29% 0.0% 101% 175812 -0.0 V
2026-05-06 10:59:05 RF06 2.29% 0.0% 101% 175812 -0.0 V
2026-05-06 10:59:03 RF06 2.29% 0.0% 101% 175812 -0.0 V
2026-05-06 10:59:03 RF06 2.29% 0.0% 101% 175812 -0.0 V
2026-05-06 10:59:03 RF06 2.29% 0.0% 101% 175812 -0.0 V
2026-05-06 10:58:14 MELK 0.1% 0.0% 97% 4330971 4.16 V
2026-05-06 10:58:13 MELK 0.1% 0.0% 97% 4330971 4.16 V
2026-05-06 10:57:55 MELK 0.1% 0.0% 97% 4330971 4.16 V
2026-05-06 10:57:55 MELK 0.1% 0.0% 97% 4330971 4.16 V
2026-05-06 10:57:46 MELK 0.1% 0.0% 97% 4330971 4.16 V
2026-05-06 10:57:46 MELK 0.1% 0.0% 97% 4330971 4.16 V
2026-05-06 10:57:41 MELK 0.1% 0.0% 97% 4330971 4.16 V
2026-05-06 10:57:41 MELK 0.1% 0.0% 97% 4330971 4.16 V
2026-05-06 10:57:41 MELK 0.1% 0.0% 97% 4330971 4.16 V
2026-05-06 10:57:24 ZS1G 0.03% 6.3% 101% 46 4.28 V
2026-05-06 10:57:22 ZS1G 0.03% 6.3% 101% 46 4.28 V
2026-05-06 10:57:22 ZS1G 0.03% 6.3% 101% 46 4.28 V
2026-05-06 10:57:19 ZS1G 0.03% 6.3% 101% 46 4.28 V
2026-05-06 10:57:18 ZS1G 0.03% 6.3% 101% 46 4.28 V
2026-05-06 10:57:17 ZS1G 0.03% 6.3% 101% 46 4.28 V
2026-05-06 10:57:14 ZS1G 0.03% 6.3% 101% 46 4.28 V
2026-05-06 10:57:13 ZS1G 0.03% 6.3% 101% 46 4.28 V
2026-05-06 10:56:19 RF67 0.08% 16.8% 101% 65 3.44 V
2026-05-06 10:56:19 RF67 0.08% 16.8% 101% 65 3.44 V
2026-05-06 10:56:19 RF67 0.08% 16.8% 101% 65 3.44 V
2026-05-06 10:55:54 2625 0.29% 5.2% 100% 819124 4.19 V
2026-05-06 10:55:54 2625 0.29% 5.2% 100% 819124 4.19 V
2026-05-06 10:55:30 976c 0.62% 3.2% 101% 4577621 4.22 V
2026-05-06 10:55:29 976c 0.62% 3.2% 101% 4577621 4.22 V
2026-05-06 10:55:01 7274 0.35% 0.0% 100% 7691804 4.11 V
2026-05-06 10:55:00 7274 0.35% 0.0% 100% 7691804 4.11 V
2026-05-06 10:55:00 7274 0.35% 0.0% 100% 7691804 4.11 V
2026-05-06 10:54:53 Wdst 1.13% 21.6% 72% 4276069 3.91 V
2026-05-06 10:54:53 Wdst 1.13% 21.6% 72% 4276069 3.91 V
2026-05-06 10:54:53 Wdst 1.13% 21.6% 72% 4276069 3.91 V
2026-05-06 10:54:02 ZS1G 0.03% 9.3% 101% 46 4.22 V
2026-05-06 10:54:01 ZS1G 0.03% 9.3% 101% 46 4.22 V
2026-05-06 10:54:00 ZS1G 0.03% 9.3% 101% 46 4.22 V
2026-05-06 10:53:10 ZS1G 0.03% 9.3% 101% 46 4.22 V
2026-05-06 10:53:08 ZS1G 0.03% 9.3% 101% 46 4.22 V
2026-05-06 10:52:36 RF67 0.08% 17.7% 101% 65 3.44 V
2026-05-06 10:52:36 RF67 0.08% 17.7% 101% 65 3.44 V
2026-05-06 10:52:36 RF67 0.08% 17.7% 101% 65 3.44 V
2026-05-06 10:52:24 DOS 1.94% 5.7% 100% 176003 4.2 V
2026-05-06 10:52:24 DOS 1.94% 5.7% 100% 176003 4.2 V
2026-05-06 10:52:23 DOS 1.94% 5.7% 100% 176003 4.2 V
2026-05-06 10:52:22 DOS 1.94% 5.7% 100% 176003 4.2 V
2026-05-06 10:52:21 DOS 1.94% 5.7% 100% 176003 4.2 V
2026-05-06 10:52:21 DOS 1.94% 5.7% 100% 176003 4.2 V
2026-05-06 10:52:20 DOS 1.94% 5.7% 100% 176003 4.2 V
2026-05-06 10:50:46 ah03 1014.8 hPa 88.84% 17.67°C
2026-05-06 10:50:46 ah03 1014.8 hPa 88.84% 17.67°C
2026-05-06 10:50:37 ah03 0.45% 7.7% 70% 1423097 3.89 V
2026-05-06 10:50:36 ah03 0.45% 7.7% 70% 1423097 3.89 V
2026-05-06 10:50:35 ah03 0.45% 7.7% 70% 1423097 3.89 V
2026-05-06 10:50:34 ah03 0.45% 7.7% 70% 1423097 3.89 V
2026-05-06 10:50:33 ah03 0.45% 7.7% 70% 1423097 3.89 V
2026-05-06 10:50:02 LMGB 0.07% 0.7% 101% 21676 -0.0 V
2026-05-06 10:50:01 LMGB 0.07% 0.7% 101% 21676 -0.0 V
2026-05-06 10:49:27 HAM2 2.71% 2.0% 91% 1096410 4.06 V
2026-05-06 10:49:27 HAM2 2.71% 2.0% 91% 1096410 4.06 V
2026-05-06 10:49:27 HAM2 2.71% 2.0% 91% 1096410 4.06 V
2026-05-06 10:48:53 RF67 0.05% 8.0% 101% 65 3.44 V
2026-05-06 10:48:52 RF67 0.05% 8.0% 101% 65 3.44 V
2026-05-06 10:48:48 RF67 0.05% 8.0% 101% 65 3.44 V
2026-05-06 10:48:48 RF67 0.05% 8.0% 101% 65 3.44 V
2026-05-06 10:48:48 RF67 0.05% 8.0% 101% 65 3.44 V
2026-05-06 10:48:31 IIXF 849.14 hPa 34.76% 23.16°C 175.68 Ohm
2026-05-06 10:48:31 IIXF 849.14 hPa 34.76% 23.16°C 175.68 Ohm
2026-05-06 10:48:24 HT77 869.01 hPa 45.77% 30.16°C
2026-05-06 10:48:24 HT77 869.01 hPa 45.77% 30.16°C
2026-05-06 10:48:03 IIXF 0.7% 0.6% 101% 173949 4.28 V
2026-05-06 10:48:03 IIXF 0.7% 0.6% 101% 173949 4.28 V
2026-05-06 10:46:16 GR02 0.03% 1.6% 100% 61 4.2 V
2026-05-06 10:46:14 GR02 0.03% 1.6% 100% 61 4.2 V
2026-05-06 10:46:14 GR02 0.03% 1.6% 100% 61 4.2 V
2026-05-06 10:46:10 GR02 0.03% 1.6% 100% 61 4.2 V
2026-05-06 10:46:09 GR02 0.03% 1.6% 100% 61 4.2 V
2026-05-06 10:46:09 GR02 0.03% 1.6% 100% 61 4.2 V
2026-05-06 10:46:09 GR02 0.03% 1.6% 100% 61 4.2 V
2026-05-06 10:46:00 JR70 0.37% 80% 6058660 3.99 V
2026-05-06 10:46:00 JR70 0.37% 80% 6058660 3.99 V
2026-05-06 10:45:52 PcL1 0.14% 0.0% 101% 56369 4.24 V
2026-05-06 10:45:52 PcL1 0.14% 0.0% 101% 56369 4.24 V
2026-05-06 10:45:02 RF67 0.05% 11.4% 101% 65 3.44 V
2026-05-06 10:45:01 RF67 0.05% 11.4% 101% 65 3.44 V
2026-05-06 10:45:01 RF67 0.05% 11.4% 101% 65 3.44 V
2026-05-06 10:44:54 HT77 0.28% 2.1% 101% 870578 4.29 V
2026-05-06 10:44:53 HT77 0.28% 2.1% 101% 870578 4.29 V
2026-05-06 10:41:16 RF67 0.07% 13.3% 101% 65 3.44 V
2026-05-06 10:41:16 RF67 0.07% 13.3% 101% 65 3.44 V
2026-05-06 10:41:16 RF67 0.07% 13.3% 101% 65 3.44 V
2026-05-06 10:40:58 2369 1.98% 2.1% 5% 13387 3.21 V
2026-05-06 10:40:57 2369 1.98% 2.1% 5% 13387 3.21 V
2026-05-06 10:40:57 2369 1.98% 2.1% 5% 13387 3.21 V
2026-05-06 10:40:53 2369 1.98% 2.1% 5% 13387 3.21 V
2026-05-06 10:40:52 2369 1.98% 2.1% 5% 13387 3.21 V
2026-05-06 10:40:52 2369 1.98% 2.1% 5% 13387 3.21 V
2026-05-06 10:40:36 MJTM 2.02% 8.3% 101% 1646806 4.21 V
2026-05-06 10:40:35 MJTM 2.02% 8.3% 101% 1646806 4.21 V
2026-05-06 10:40:34 MJTM 2.02% 8.3% 101% 1646806 4.21 V
2026-05-06 10:40:33 MJTM 2.02% 8.3% 101% 1646806 4.21 V
2026-05-06 10:40:32 MJTM 2.02% 8.3% 101% 1646806 4.21 V
2026-05-06 10:40:31 MJTM 2.02% 8.3% 101% 1646806 4.21 V
2026-05-06 10:39:49 Wdst 0.99% 13.7% 72% 4275168 3.92 V
2026-05-06 10:39:48 Wdst 0.99% 13.7% 72% 4275168 3.92 V
2026-05-06 10:39:48 Wdst 0.99% 13.7% 72% 4275168 3.92 V
2026-05-06 10:38:54 LAM2 0.09% 15.2% 99% 178 4.18 V
2026-05-06 10:38:53 LAM2 0.09% 15.2% 99% 178 4.18 V
2026-05-06 10:38:50 LAM2 0.09% 15.2% 99% 178 4.18 V
2026-05-06 10:38:50 LAM2 0.09% 15.2% 99% 178 4.18 V
2026-05-06 10:38:50 LAM2 0.09% 15.2% 99% 178 4.18 V
2026-05-06 10:38:46 LAM2 0.09% 15.2% 99% 178 4.18 V
2026-05-06 10:38:46 LAM2 0.09% 15.2% 99% 178 4.18 V
2026-05-06 10:38:46 LAM2 0.09% 15.2% 99% 178 4.18 V
2026-05-06 10:38:46 LAM2 0.09% 15.2% 99% 178 4.18 V
2026-05-06 10:38:22 MRB1 2.01% 13.5% 99% 64841 4.18 V
2026-05-06 10:38:20 MRB1 2.01% 13.5% 99% 64841 4.18 V
2026-05-06 10:38:20 MRB1 2.01% 13.5% 99% 64841 4.18 V
2026-05-06 10:38:13 MRB1 2.01% 13.5% 99% 64841 4.18 V
2026-05-06 10:38:10 MRB1 2.01% 13.5% 99% 64841 4.18 V
2026-05-06 10:37:58 MRB1 2.01% 13.5% 99% 64841 4.18 V
2026-05-06 10:37:38 2-D 0.44% 101% 12825781 4.24 V
2026-05-06 10:37:37 2-D 0.44% 101% 12825781 4.24 V
2026-05-06 10:37:35 RF67 0.07% 15.2% 101% 65 3.44 V
2026-05-06 10:37:35 RF67 0.07% 15.2% 101% 65 3.44 V
2026-05-06 10:37:31 RF67 0.07% 15.2% 101% 65 3.44 V
2026-05-06 10:37:30 RF67 0.07% 15.2% 101% 65 3.44 V
2026-05-06 10:37:30 RF67 0.07% 15.2% 101% 65 3.44 V
2026-05-06 10:37:04 ah03
2026-05-06 10:37:04 ah03
2026-05-06 10:37:02 ah03
2026-05-06 10:37:01 ah03
2026-05-06 10:37:01 ah03
2026-05-06 10:37:00 ah03
2026-05-06 10:36:57 ah03
2026-05-06 10:36:57 ah03
2026-05-06 10:34:22 LMBt 0.26% 10.0% 68% 105198 3.88 V
2026-05-06 10:34:21 LMBt 0.26% 10.0% 68% 105198 3.88 V
2026-05-06 10:34:20 LMBt 0.26% 10.0% 68% 105198 3.88 V
2026-05-06 10:34:20 LMBt 0.26% 10.0% 68% 105198 3.88 V
2026-05-06 10:34:20 LMBt 0.26% 10.0% 68% 105198 3.88 V
2026-05-06 10:34:17 LMBt 0.26% 10.0% 68% 105198 3.88 V
2026-05-06 10:34:17 LMBt 0.26% 10.0% 68% 105198 3.88 V
2026-05-06 10:33:45 RF67 0.05% 10.7% 101% 65 3.44 V
2026-05-06 10:33:44 RF67 0.05% 10.7% 101% 65 3.44 V
2026-05-06 10:33:44 RF67 0.05% 10.7% 101% 65 3.44 V
2026-05-06 10:33:29 21a9 1018.63 hPa 43.13% 17.07°C
2026-05-06 10:33:28 21a9 1018.63 hPa 43.13% 17.07°C
2026-05-06 10:33:02 21a9 0.45% 0.0% 66% 684140 3.86 V
2026-05-06 10:33:02 21a9 0.45% 0.0% 66% 684140 3.86 V
2026-05-06 10:31:16 SMWS 1.02% 4.9% 38% 690801 3.61 V
2026-05-06 10:31:15 SMWS 1.02% 4.9% 38% 690801 3.61 V
2026-05-06 10:31:15 SMWS 1.02% 4.9% 38% 690801 3.61 V
2026-05-06 10:31:01 JR70 0.35% 3.8% 81% 6057757 4.0 V
2026-05-06 10:31:01 JR70 0.35% 3.8% 81% 6057757 4.0 V
2026-05-06 10:30:31 IIXF 849.32 hPa 35.08% 23.28°C 235.69 Ohm
2026-05-06 10:30:31 IIXF 849.32 hPa 35.08% 23.28°C 235.69 Ohm
2026-05-06 10:30:25 HT77 869.24 hPa 44.76% 30.81°C
2026-05-06 10:30:25 HT77 869.24 hPa 44.76% 30.81°C
2026-05-06 10:30:03 IIXF 0.73% 1.2% 101% 172869 4.28 V
2026-05-06 10:30:03 IIXF 0.73% 1.2% 101% 172869 4.28 V
2026-05-06 10:29:59 RF67 0.03% 10.3% 101% 65 3.44 V
2026-05-06 10:29:58 RF67 0.03% 10.3% 101% 65 3.44 V
2026-05-06 10:29:58 RF67 0.03% 10.3% 101% 65 3.44 V
2026-05-06 10:27:50 MELK 0.19% 0.0% 98% 4329171 4.17 V
2026-05-06 10:27:49 MELK 0.19% 0.0% 98% 4329171 4.17 V
2026-05-06 10:27:42 MELK 0.19% 0.0% 98% 4329171 4.17 V
2026-05-06 10:27:42 MELK 0.19% 0.0% 98% 4329171 4.17 V
2026-05-06 10:27:40 MELK 0.19% 0.0% 98% 4329171 4.17 V
2026-05-06 10:27:40 MELK 0.19% 0.0% 98% 4329171 4.17 V
2026-05-06 10:27:38 MELK 0.19% 0.0% 98% 4329171 4.17 V
2026-05-06 10:27:38 MELK 0.19% 0.0% 98% 4329171 4.17 V
2026-05-06 10:27:19 PTRH 0.35% 0.0% 56% 853554 3.77 V
2026-05-06 10:27:19 PTRH 0.35% 0.0% 56% 853554 3.77 V
2026-05-06 10:26:51 HT77 0.27% 0.0% 101% 869498 4.29 V
2026-05-06 10:26:51 HT77 0.27% 0.0% 101% 869498 4.29 V
2026-05-06 10:26:48 LMBs 21.63°C
2026-05-06 10:26:48 LMBs 21.63°C
2026-05-06 10:26:46 RX01 0.02% 0.0% 101% 8721 0.0 V
2026-05-06 10:26:45 RX01 0.02% 0.0% 101% 8721 0.0 V
2026-05-06 10:26:13 RF67 0.08% 11.4% 101% 65 3.44 V
2026-05-06 10:26:12 RF67 0.08% 11.4% 101% 65 3.44 V
2026-05-06 10:26:12 RF67 0.08% 11.4% 101% 65 3.44 V
2026-05-06 10:25:54 2625 0.25% 2.3% 100% 817324 4.19 V
2026-05-06 10:25:54 2625 0.25% 2.3% 100% 817324 4.19 V
2026-05-06 10:25:22 LRX1 1.63% 6.5% 82% 44116 4.0 V
2026-05-06 10:25:21 LRX1 1.63% 6.5% 82% 44116 4.0 V
2026-05-06 10:25:20 LRX1 1.63% 6.5% 82% 44116 4.0 V
2026-05-06 10:25:18 LRX1 1.63% 6.5% 82% 44116 4.0 V
2026-05-06 10:25:18 LRX1 1.63% 6.5% 82% 44116 4.0 V
2026-05-06 10:24:46 LRX1 1009.24 hPa 58.29% 21.5°C
2026-05-06 10:24:45 LRX1 1009.24 hPa 58.29% 21.5°C
2026-05-06 10:24:44 LRX1 1009.24 hPa 58.29% 21.5°C
2026-05-06 10:24:41 LRX1 1009.24 hPa 58.29% 21.5°C
2026-05-06 10:24:39 LRX1 1009.24 hPa 58.29% 21.5°C
2026-05-06 10:24:36 Wdst 0.89% 73% 4274268 3.92 V
2026-05-06 10:24:36 Wdst 0.89% 73% 4274268 3.92 V
2026-05-06 10:24:36 Wdst 0.89% 73% 4274268 3.92 V
2026-05-06 10:22:29 6b46 0.2% 0.0% 45% 2393214 3.68 V
2026-05-06 10:22:28 6b46 0.2% 0.0% 45% 2393214 3.68 V
2026-05-06 10:22:27 RF67 0.08% 11.8% 101% 65 3.44 V
2026-05-06 10:22:27 RF67 0.08% 11.8% 101% 65 3.44 V
2026-05-06 10:21:56 PMT2 1.67% 4.0% 101% 2776112 4.2 V
2026-05-06 10:21:56 PMT2 1.67% 4.0% 101% 2776112 4.2 V
2026-05-06 10:21:51 PMT2 1.67% 4.0% 101% 2776112 4.2 V
2026-05-06 10:21:51 PMT2 1.67% 4.0% 101% 2776112 4.2 V
2026-05-06 10:21:38 Jim1 1.72% 4.0% 91% 6734114 4.07 V
2026-05-06 10:21:38 Jim1 1.72% 4.0% 91% 6734114 4.07 V
2026-05-06 10:21:37 Jim1 1.72% 4.0% 91% 6734114 4.07 V
2026-05-06 10:21:35 Jim1 1.72% 4.0% 91% 6734114 4.07 V
2026-05-06 10:21:34 Jim1 1.72% 4.0% 91% 6734114 4.07 V
2026-05-06 10:21:34 Jim1 1.72% 4.0% 91% 6734114 4.07 V
2026-05-06 10:21:29 Gert 2.53% 5.0% 99% 239005 4.18 V
2026-05-06 10:21:28 Gert 2.53% 5.0% 99% 239005 4.18 V
2026-05-06 10:21:26 Gert 2.53% 5.0% 99% 239005 4.18 V
2026-05-06 10:21:26 Gert 2.53% 5.0% 99% 239005 4.18 V
2026-05-06 10:21:25 Gert 2.53% 5.0% 99% 239005 4.18 V
2026-05-06 10:21:24 Gert 2.53% 5.0% 99% 239005 4.18 V
2026-05-06 10:21:24 Gert 2.53% 5.0% 99% 239005 4.18 V
2026-05-06 10:20:33 ah03 0.41% 9.7% 71% 1421266 3.91 V
2026-05-06 10:20:33 ah03 0.41% 9.7% 71% 1421266 3.91 V
2026-05-06 10:20:31 ah03 0.41% 9.7% 71% 1421266 3.91 V
2026-05-06 10:20:30 ah03 0.41% 9.7% 71% 1421266 3.91 V
2026-05-06 10:20:21 RF06 1.74% 7.5% 101% 173472 -0.0 V
2026-05-06 10:20:19 RF06 1.74% 7.5% 101% 173472 -0.0 V
2026-05-06 10:20:19 RF06 1.74% 7.5% 101% 173472 -0.0 V
2026-05-06 10:20:10 RF06 1.74% 7.5% 101% 173472 -0.0 V
2026-05-06 10:20:10 RF06 1.74% 7.5% 101% 173472 -0.0 V
2026-05-06 10:20:06 ah03 0.41% 9.7% 71% 1421266 3.91 V
2026-05-06 10:20:05 ah03 0.41% 9.7% 71% 1421266 3.91 V
2026-05-06 10:20:04 ah03 0.41% 9.7% 71% 1421266 3.91 V
2026-05-06 10:20:03 RF06 1.74% 7.5% 101% 173472 -0.0 V
2026-05-06 10:20:03 RF06 1.74% 7.5% 101% 173472 -0.0 V
2026-05-06 10:20:03 RF06 1.74% 7.5% 101% 173472 -0.0 V
2026-05-06 10:19:34 HAM2 2.71% 1.7% 90% 1094610 4.06 V
2026-05-06 10:19:34 HAM2 2.71% 1.7% 90% 1094610 4.06 V
2026-05-06 10:19:27 HAM2 2.71% 1.7% 90% 1094610 4.06 V
2026-05-06 10:19:26 HAM2 2.71% 1.7% 90% 1094610 4.06 V
2026-05-06 10:19:26 HAM2 2.71% 1.7% 90% 1094610 4.06 V
2026-05-06 10:19:00 7274 0.39% 0.0% 100% 7689644 4.11 V
2026-05-06 10:19:00 7274 0.39% 0.0% 100% 7689644 4.11 V
2026-05-06 10:19:00 7274 0.39% 0.0% 100% 7689644 4.11 V
2026-05-06 10:18:41 RF67 0.05% 4.8% 101% 65 3.44 V
2026-05-06 10:18:41 RF67 0.05% 4.8% 101% 65 3.44 V
2026-05-06 10:15:55 JR70 0.4% 81% 6056854 4.0 V
2026-05-06 10:15:54 JR70 0.4% 81% 6056854 4.0 V
2026-05-06 10:15:09 RF67 0.05% 7.1% 101% 65 3.44 V
2026-05-06 10:15:09 RF67 0.05% 7.1% 101% 65 3.44 V
2026-05-06 10:15:04 RF67 0.05% 7.1% 101% 65 3.44 V
2026-05-06 10:15:03 RF67 0.05% 7.1% 101% 65 3.44 V
2026-05-06 10:14:55 RF67 0.05% 7.1% 101% 65 3.44 V
2026-05-06 10:14:55 RF67 0.05% 7.1% 101% 65 3.44 V
2026-05-06 10:14:00 LMGB 0.06% 0.0% 101% 19514 -0.0 V
2026-05-06 10:14:00 LMGB 0.06% 0.0% 101% 19514 -0.0 V
2026-05-06 10:13:39 SMWS 0.97% 0.9% 39% 689709 3.63 V
2026-05-06 10:13:39 SMWS 0.97% 0.9% 39% 689709 3.63 V
2026-05-06 10:13:39 SMWS 0.97% 0.9% 39% 689709 3.63 V
2026-05-06 10:13:16 ah02 100.0% 16.7°C
2026-05-06 10:13:15 ah02 100.0% 16.7°C
2026-05-06 10:13:15 ah02 100.0% 16.7°C
2026-05-06 10:13:15 ah02 100.0% 16.7°C
2026-05-06 10:13:15 ah02 100.0% 16.7°C
2026-05-06 10:12:53 ah02 0.04% 28.3% 69% 61 3.88 V
2026-05-06 10:12:53 ah02 0.04% 28.3% 69% 61 3.88 V
2026-05-06 10:12:51 ah02 0.04% 28.3% 69% 61 3.88 V
2026-05-06 10:12:50 ah02 0.04% 28.3% 69% 61 3.88 V
2026-05-06 10:12:49 ah02 0.04% 28.3% 69% 61 3.88 V
2026-05-06 10:12:49 ah02 0.04% 28.3% 69% 61 3.88 V
2026-05-06 10:12:31 IIXF 849.48 hPa 37.77% 23.42°C 217.12 Ohm
2026-05-06 10:12:30 IIXF 849.48 hPa 37.77% 23.42°C 217.12 Ohm
2026-05-06 10:12:23 HT77 869.22 hPa 44.14% 30.76°C
2026-05-06 10:12:23 HT77 869.22 hPa 44.14% 30.76°C
2026-05-06 10:12:03 IIXF 0.7% 0.6% 101% 171789 4.28 V
2026-05-06 10:12:03 IIXF 0.7% 0.6% 101% 171789 4.28 V
2026-05-06 10:11:21 RF67 0.08% 17.5% 101% 65 3.44 V
2026-05-06 10:11:19 RF67 0.08% 17.5% 101% 65 3.44 V
2026-05-06 10:11:18 RF67 0.08% 17.5% 101% 65 3.44 V
2026-05-06 10:11:11 RF67 0.08% 17.5% 101% 65 3.44 V
2026-05-06 10:11:10 RF67 0.08% 17.5% 101% 65 3.44 V
2026-05-06 10:11:10 RF67 0.08% 17.5% 101% 65 3.44 V
2026-05-06 10:10:58 2369 2.34% 5.6% 5% 11586 3.21 V
2026-05-06 10:10:58 2369 2.34% 5.6% 5% 11586 3.21 V
2026-05-06 10:10:55 2369 2.34% 5.6% 5% 11586 3.21 V
2026-05-06 10:10:53 2369 2.34% 5.6% 5% 11586 3.21 V
2026-05-06 10:10:52 2369 2.34% 5.6% 5% 11586 3.21 V
2026-05-06 10:10:52 2369 2.34% 5.6% 5% 11586 3.21 V
2026-05-06 10:10:25 MJTM 1.59% 22.5% 98% 1645006 4.17 V
2026-05-06 10:10:24 MJTM 1.59% 22.5% 98% 1645006 4.17 V
2026-05-06 10:10:24 MJTM 1.59% 22.5% 98% 1645006 4.17 V
2026-05-06 10:10:24 MJTM 1.59% 22.5% 98% 1645006 4.17 V
2026-05-06 10:10:23 MJTM 1.59% 22.5% 98% 1645006 4.17 V
2026-05-06 10:10:02 Wdst 0.9% 6.9% 73% 4273368 3.92 V
2026-05-06 10:10:01 Wdst 0.9% 6.9% 73% 4273368 3.92 V
2026-05-06 10:10:01 Wdst 0.9% 6.9% 73% 4273368 3.92 V
2026-05-06 10:09:45 PcL1 0.14% 0.0% 101% 54201 4.2 V
2026-05-06 10:09:44 PcL1 0.14% 0.0% 101% 54201 4.2 V
2026-05-06 10:08:51 HT77 0.28% 1.9% 101% 868418 4.29 V
2026-05-06 10:08:51 HT77 0.28% 1.9% 101% 868418 4.29 V
2026-05-06 10:07:37 2-D 0.43% 101% 12823981 4.24 V
2026-05-06 10:07:36 2-D 0.43% 101% 12823981 4.24 V
2026-05-06 10:07:27 RF67 0.03% 10.7% 101% 65 3.44 V
2026-05-06 10:07:26 RF67 0.03% 10.7% 101% 65 3.44 V
2026-05-06 10:07:26 RF67 0.03% 10.7% 101% 65 3.44 V
2026-05-06 10:07:26 RF67 0.03% 10.7% 101% 65 3.44 V
2026-05-06 10:07:24 RF67 0.03% 10.7% 101% 65 3.44 V
2026-05-06 10:07:23 RF67 0.03% 10.7% 101% 65 3.44 V
2026-05-06 10:06:52 ah03
2026-05-06 10:06:52 ah03
2026-05-06 10:03:38 RF67 0.07% 15.0% 101% 65 3.44 V
2026-05-06 10:03:38 RF67 0.07% 15.0% 101% 65 3.44 V
2026-05-06 10:03:38 RF67 0.07% 15.0% 101% 65 3.44 V
2026-05-06 10:03:27 e536 0.43% 3.0% 93% 47464969 4.09 V
2026-05-06 10:01:03 ah01 2.28% 0.0% 94% 1833623 4.12 V
2026-05-06 10:01:02 ah01 2.28% 0.0% 94% 1833623 4.12 V
2026-05-06 10:00:50 JR70 0.35% 4.1% 81% 6055951 4.0 V
2026-05-06 10:00:50 JR70 0.35% 4.1% 81% 6055951 4.0 V
2026-05-06 10:00:04 ah01 2.28% 0.0% 94% 1833623 4.12 V
2026-05-06 10:00:03 ah01 2.28% 0.0% 94% 1833623 4.12 V
2026-05-06 10:00:02 ah01 2.28% 0.0% 94% 1833623 4.12 V
2026-05-06 09:59:54 RF67 0.07% 19.3% 101% 65 3.44 V
2026-05-06 09:59:54 RF67 0.07% 19.3% 101% 65 3.44 V
2026-05-06 09:59:53 RF67 0.07% 19.3% 101% 65 3.44 V
2026-05-06 09:56:06 RF67 0.05% 14.1% 101% 65 3.44 V
2026-05-06 09:56:06 RF67 0.05% 14.1% 101% 65 3.44 V
2026-05-06 09:55:54 2625 0.14% 0.0% 100% 815524 4.2 V
2026-05-06 09:55:54 2625 0.14% 0.0% 100% 815524 4.2 V
2026-05-06 09:55:25 SMWS 0.96% 0.9% 36% 688600 3.6 V
2026-05-06 09:55:25 SMWS 0.96% 0.9% 36% 688600 3.6 V
2026-05-06 09:55:17 976c 0.62% 2.8% 101% 4574009 4.22 V
2026-05-06 09:55:17 976c 0.62% 2.8% 101% 4574009 4.22 V
2026-05-06 09:54:36 Wdst 1.01% 1.7% 73% 4272468 3.92 V
2026-05-06 09:54:36 Wdst 1.01% 1.7% 73% 4272468 3.92 V
2026-05-06 09:54:36 Wdst 1.01% 1.7% 73% 4272468 3.92 V
2026-05-06 09:54:31 IIXF 849.47 hPa 35.73% 23.25°C 232.87 Ohm
2026-05-06 09:54:30 IIXF 849.47 hPa 35.73% 23.25°C 232.87 Ohm
2026-05-06 09:54:28 HT77 869.38 hPa 47.56% 25.88°C
2026-05-06 09:54:27 HT77 869.38 hPa 47.56% 25.88°C
2026-05-06 09:54:03 IIXF 0.74% 0.6% 101% 170709 4.28 V
2026-05-06 09:54:03 IIXF 0.74% 0.6% 101% 170709 4.28 V
2026-05-06 09:53:18 PMT2 22.23°C
2026-05-06 09:53:18 PMT2 22.23°C
2026-05-06 09:52:43 DOS 2.27% 2.1% 99% 172403 4.19 V
2026-05-06 09:52:42 DOS 2.27% 2.1% 99% 172403 4.19 V
2026-05-06 09:52:38 DOS 2.27% 2.1% 99% 172403 4.19 V
2026-05-06 09:52:38 DOS 2.27% 2.1% 99% 172403 4.19 V
2026-05-06 09:52:30 DOS 2.27% 2.1% 99% 172403 4.19 V
2026-05-06 09:52:30 DOS 2.27% 2.1% 99% 172403 4.19 V
2026-05-06 09:52:26 RF67 0.07% 12.5% 101% 65 3.44 V
2026-05-06 09:52:26 RF67 0.07% 12.5% 101% 65 3.44 V
2026-05-06 09:52:21 DOS 2.27% 2.1% 99% 172403 4.19 V
2026-05-06 09:52:20 RF67 0.07% 12.5% 101% 65 3.44 V
2026-05-06 09:52:20 DOS 2.27% 2.1% 99% 172403 4.19 V
2026-05-06 09:52:20 RF67 0.07% 12.5% 101% 65 3.44 V
2026-05-06 09:52:19 DOS 2.27% 2.1% 99% 172403 4.19 V
2026-05-06 09:51:19 PTRH 0.32% 0.0% 52% 851394 3.74 V
2026-05-06 09:51:19 PTRH 0.32% 0.0% 52% 851394 3.74 V
2026-05-06 09:50:51 HT77 0.29% 0.0% 101% 867338 4.29 V
2026-05-06 09:50:51 HT77 0.29% 0.0% 101% 867338 4.29 V
2026-05-06 09:50:44 RX01 0.02% 0.0% 101% 6559 0.0 V
2026-05-06 09:50:44 RX01 0.02% 0.0% 101% 6559 0.0 V
2026-05-06 09:50:28 LMBr 3.09% 7.5% 94% 3754830 4.11 V
2026-05-06 09:50:27 LMBr 3.09% 7.5% 94% 3754830 4.11 V
2026-05-06 09:50:26 LMBr 3.09% 7.5% 94% 3754830 4.11 V
2026-05-06 09:50:26 LMBr 3.09% 7.5% 94% 3754830 4.11 V
2026-05-06 09:50:25 LMBr 3.09% 7.5% 94% 3754830 4.11 V
2026-05-06 09:50:25 LMBr 3.09% 7.5% 94% 3754830 4.11 V
2026-05-06 09:50:25 LMBr 3.09% 7.5% 94% 3754830 4.11 V
2026-05-06 09:49:37 HAM2 3.09% 1.0% 90% 1092810 4.06 V
2026-05-06 09:49:36 HAM2 3.09% 1.0% 90% 1092810 4.06 V
2026-05-06 09:49:29 HAM2 3.09% 1.0% 90% 1092810 4.06 V
2026-05-06 09:49:28 HAM2 3.09% 1.0% 90% 1092810 4.06 V
2026-05-06 09:49:26 HAM2 3.09% 1.0% 90% 1092810 4.06 V
2026-05-06 09:49:26 HAM2 3.09% 1.0% 90% 1092810 4.06 V
2026-05-06 09:49:26 HAM2 3.09% 1.0% 90% 1092810 4.06 V
2026-05-06 09:49:18 LRX1 1.78% 5.0% 82% 41956 4.01 V
2026-05-06 09:49:17 LRX1 1.78% 5.0% 82% 41956 4.01 V
2026-05-06 09:49:16 LRX1 1.78% 5.0% 82% 41956 4.01 V
2026-05-06 09:49:14 LRX1 1.78% 5.0% 82% 41956 4.01 V
2026-05-06 09:49:14 LRX1 1.78% 5.0% 82% 41956 4.01 V
2026-05-06 09:48:35 RF67 0.07% 13.0% 101% 65 3.45 V
2026-05-06 09:48:35 RF67 0.07% 13.0% 101% 65 3.45 V
2026-05-06 09:48:35 RF67 0.07% 13.0% 101% 65 3.45 V
2026-05-06 09:47:45 LRX1 1009.35 hPa 58.23% 21.36°C
2026-05-06 09:47:44 LRX1 1009.35 hPa 58.23% 21.36°C
2026-05-06 09:47:44 LRX1 1009.35 hPa 58.23% 21.36°C
2026-05-06 09:47:41 LRX1 1009.35 hPa 58.23% 21.36°C
2026-05-06 09:47:40 LRX1 1009.35 hPa 58.23% 21.36°C
2026-05-06 09:47:40 LRX1 1009.35 hPa 58.23% 21.36°C
2026-05-06 09:46:54 RLSC 999.5 hPa 76.42% 14.19°C
2026-05-06 09:46:54 RLSC 999.5 hPa 76.42% 14.19°C
2026-05-06 09:46:32 MJTM 0.77% 2.8% 99% 1643566 4.19 V
2026-05-06 09:46:32 MJTM 0.77% 2.8% 99% 1643566 4.19 V
2026-05-06 09:46:29 MJTM 0.77% 2.8% 99% 1643566 4.19 V
2026-05-06 09:46:28 MJTM 0.77% 2.8% 99% 1643566 4.19 V
2026-05-06 09:46:28 MJTM 0.77% 2.8% 99% 1643566 4.19 V
2026-05-06 09:46:26 MJTM 0.77% 2.8% 99% 1643566 4.19 V
2026-05-06 09:45:51 JR70 0.28% 87% 6055048 4.03 V
2026-05-06 09:45:51 JR70 0.28% 87% 6055048 4.03 V
2026-05-06 09:44:54 RF67 0.05% 24.9% 101% 65 3.44 V
2026-05-06 09:44:53 RF67 0.05% 24.9% 101% 65 3.44 V
2026-05-06 09:44:52 RF67 0.05% 24.9% 101% 65 3.44 V
2026-05-06 09:44:52 RF67 0.05% 24.9% 101% 65 3.44 V
2026-05-06 09:44:49 RF67 0.05% 24.9% 101% 65 3.44 V
2026-05-06 09:44:49 RF67 0.05% 24.9% 101% 65 3.44 V
2026-05-06 09:44:49 RF67 0.05% 24.9% 101% 65 3.44 V
2026-05-06 09:44:04 DJMH 0.39% 0.0% 87% 6376019 4.04 V
2026-05-06 09:44:04 DJMH 0.39% 0.0% 87% 6376019 4.04 V
2026-05-06 09:43:00 7274 0.46% 0.0% 100% 7687484 4.11 V
2026-05-06 09:43:00 7274 0.46% 0.0% 100% 7687484 4.11 V
2026-05-06 09:42:53 2369 2.03% 2.3% 5% 9786 3.22 V
2026-05-06 09:41:03 RF67 0.05% 15.7% 101% 65 3.45 V
2026-05-06 09:41:03 RF67 0.05% 15.7% 101% 65 3.45 V
2026-05-06 09:40:53 2369 2.03% 2.3% 5% 9786 3.22 V
2026-05-06 09:40:52 2369 2.03% 2.3% 5% 9786 3.22 V
2026-05-06 09:40:52 2369 2.03% 2.3% 5% 9786 3.22 V
2026-05-06 09:39:33 Wdst 0.91% 72% 4271567 3.92 V
2026-05-06 09:39:33 Wdst 0.91% 72% 4271567 3.92 V
2026-05-06 09:39:33 Wdst 0.91% 72% 4271567 3.92 V
2026-05-06 09:38:09 RF06 1.37% 14.9% 101% 170952 6.31 V
2026-05-06 09:38:09 RF06 1.37% 14.9% 101% 170952 6.31 V
2026-05-06 09:38:07 RF06 1.37% 14.9% 101% 170952 6.31 V
2026-05-06 09:38:07 RF06 1.37% 14.9% 101% 170952 6.31 V
2026-05-06 09:38:03 RF06 1.37% 14.9% 101% 170952 6.31 V
2026-05-06 09:38:03 RF06 1.37% 14.9% 101% 170952 6.31 V
2026-05-06 09:38:03 RF06 1.37% 14.9% 101% 170952 6.31 V
2026-05-06 09:37:58 LMGB 0.06% 0.0% 101% 17352 -0.0 V
2026-05-06 09:37:58 LMGB 0.06% 0.0% 101% 17352 -0.0 V
2026-05-06 09:37:48 RF01 0.52% 19.6% 101% 307695 4.25 V
2026-05-06 09:37:46 RF01 0.52% 19.6% 101% 307695 4.25 V
2026-05-06 09:37:46 RF01 0.52% 19.6% 101% 307695 4.25 V
2026-05-06 09:37:42 2-D 0.4% 101% 12822181 4.25 V
2026-05-06 09:37:41 RF01 0.52% 19.6% 101% 307695 4.25 V
2026-05-06 09:37:41 RF01 0.52% 19.6% 101% 307695 4.25 V
2026-05-06 09:37:41 2-D 0.4% 101% 12822181 4.25 V
2026-05-06 09:37:41 RF01 0.52% 19.6% 101% 307695 4.25 V
2026-05-06 09:37:17 RF67 0.08% 13.0% 101% 65 3.45 V
2026-05-06 09:37:17 RF67 0.08% 13.0% 101% 65 3.45 V
2026-05-06 09:36:31 IIXF 849.41 hPa 37.79% 23.34°C 222.98 Ohm
2026-05-06 09:36:30 IIXF 849.41 hPa 37.79% 23.34°C 222.98 Ohm
2026-05-06 09:36:27 ah03
2026-05-06 09:36:24 ah03
2026-05-06 09:36:19 ah03
2026-05-06 09:36:19 ah03
2026-05-06 09:36:12 ah03
2026-05-06 09:36:11 ah03
2026-05-06 09:36:11 ah03
2026-05-06 09:36:03 IIXF 0.68% 0.6% 101% 169629 4.28 V
2026-05-06 09:36:03 IIXF 0.68% 0.6% 101% 169629 4.28 V
2026-05-06 09:35:45 SMWS 1.01% 2.8% 36% 687469 3.6 V
2026-05-06 09:35:44 SMWS 1.01% 2.8% 36% 687469 3.6 V
2026-05-06 09:33:55 PMT2 1.5% 4.2% 101% 2773231 4.2 V
2026-05-06 09:33:54 PMT2 1.5% 4.2% 101% 2773231 4.2 V
2026-05-06 09:33:52 PMT2 1.5% 4.2% 101% 2773231 4.2 V
2026-05-06 09:33:52 PMT2 1.5% 4.2% 101% 2773231 4.2 V
2026-05-06 09:33:36 PcL1 0.11% 0.0% 99% 52033 4.18 V
2026-05-06 09:33:36 PcL1 0.11% 0.0% 99% 52033 4.18 V
2026-05-06 09:33:32 RF67 0.07% 11.3% 101% 65 3.44 V
2026-05-06 09:33:31 RF67 0.07% 11.3% 101% 65 3.44 V
2026-05-06 09:33:31 RF67 0.07% 11.3% 101% 65 3.44 V
2026-05-06 09:33:29 21a9 1018.55 hPa 43.69% 16.76°C
2026-05-06 09:33:28 21a9 1018.55 hPa 43.69% 16.76°C
2026-05-06 09:33:03 21a9 0.2% 0.0% 68% 680540 3.88 V
2026-05-06 09:33:03 MRB1 2.17% 8.9% 101% 60938 4.24 V
2026-05-06 09:33:02 MRB1 2.17% 8.9% 101% 60938 4.24 V
2026-05-06 09:33:02 21a9 0.2% 0.0% 68% 680540 3.88 V
2026-05-06 09:33:01 MRB1 2.17% 8.9% 101% 60938 4.24 V
2026-05-06 09:32:56 MRB1 2.17% 8.9% 101% 60938 4.24 V
2026-05-06 09:32:55 MRB1 2.17% 8.9% 101% 60938 4.24 V
2026-05-06 09:32:55 MRB1 2.17% 8.9% 101% 60938 4.24 V
2026-05-06 09:32:52 HT77 0.31% 0.0% 101% 866258 4.29 V
2026-05-06 09:32:51 HT77 0.31% 0.0% 101% 866258 4.29 V
2026-05-06 09:30:49 JR70 0.28% 90% 6054145 4.06 V
2026-05-06 09:30:49 JR70 0.28% 90% 6054145 4.06 V
2026-05-06 09:30:08 ah01 2.12% 7.0% 94% 1831822 4.12 V
2026-05-06 09:30:08 ah01 2.12% 7.0% 94% 1831822 4.12 V
2026-05-06 09:30:06 ah01 2.12% 7.0% 94% 1831822 4.12 V
2026-05-06 09:30:05 ah01 2.12% 7.0% 94% 1831822 4.12 V
2026-05-06 09:30:04 ah01 2.12% 7.0% 94% 1831822 4.12 V
2026-05-06 09:29:55 RF67 0.05% 11.2% 101% 65 3.44 V
2026-05-06 09:29:53 RF67 0.05% 11.2% 101% 65 3.44 V
2026-05-06 09:29:53 RF67 0.05% 11.2% 101% 65 3.44 V
2026-05-06 09:29:53 RF67 0.05% 11.2% 101% 65 3.44 V
2026-05-06 09:29:46 RF67 0.05% 11.2% 101% 65 3.44 V
2026-05-06 09:29:45 RF67 0.05% 11.2% 101% 65 3.44 V
2026-05-06 09:29:45 RF67 0.05% 11.2% 101% 65 3.44 V
2026-05-06 09:27:47 MELK 0.02% 0.0% 97% 4325571 4.16 V
2026-05-06 09:27:42 MELK 0.02% 0.0% 97% 4325571 4.16 V
2026-05-06 09:27:41 MELK 0.02% 0.0% 97% 4325571 4.16 V
2026-05-06 09:27:41 MELK 0.02% 0.0% 97% 4325571 4.16 V
2026-05-06 09:27:38 MELK 0.02% 0.0% 97% 4325571 4.16 V
2026-05-06 09:27:38 MELK 0.02% 0.0% 97% 4325571 4.16 V
2026-05-06 09:27:38 MELK 0.02% 0.0% 97% 4325571 4.16 V
2026-05-06 09:26:48 LMBs 21.46°C
2026-05-06 09:26:48 LMBs 21.46°C
2026-05-06 09:26:07 RF67 0.09% 19.6% 101% 65 3.44 V
2026-05-06 09:26:06 RF67 0.09% 19.6% 101% 65 3.44 V
2026-05-06 09:26:03 RF67 0.09% 19.6% 101% 65 3.44 V
2026-05-06 09:26:00 RF67 0.09% 19.6% 101% 65 3.44 V
2026-05-06 09:26:00 RF67 0.09% 19.6% 101% 65 3.44 V
2026-05-06 09:25:54 LUK3 0.82% 0.0% 94% 14982195 4.12 V
2026-05-06 09:25:54 2625 0.08% 0.0% 100% 813724 4.19 V
2026-05-06 09:25:54 LUK3 0.82% 0.0% 94% 14982195 4.12 V
2026-05-06 09:25:53 2625 0.08% 0.0% 100% 813724 4.19 V
2026-05-06 09:25:25 LMBt 0.27% 9.3% 70% 101057 3.89 V
2026-05-06 09:25:25 LMBt 0.27% 9.3% 70% 101057 3.89 V
2026-05-06 09:25:21 LMBt 0.27% 9.3% 70% 101057 3.89 V
2026-05-06 09:25:20 LMBt 0.27% 9.3% 70% 101057 3.89 V
2026-05-06 09:25:19 LMBt 0.27% 9.3% 70% 101057 3.89 V
2026-05-06 09:25:17 LMBt 0.27% 9.3% 70% 101057 3.89 V
2026-05-06 09:25:17 LMBt 0.27% 9.3% 70% 101057 3.89 V
2026-05-06 09:24:38 Wdst 0.97% 7.6% 72% 4270667 3.92 V
2026-05-06 09:24:38 Wdst 0.97% 7.6% 72% 4270667 3.92 V
2026-05-06 09:24:37 Wdst 0.97% 7.6% 72% 4270667 3.92 V
2026-05-06 09:22:23 RF67 0.07% 17.4% 101% 65 3.44 V
2026-05-06 09:22:19 RF67 0.07% 17.4% 101% 65 3.44 V
2026-05-06 09:22:17 RF67 0.07% 17.4% 101% 65 3.44 V
2026-05-06 09:22:16 RF67 0.07% 17.4% 101% 65 3.44 V
2026-05-06 09:22:14 RF67 0.07% 17.4% 101% 65 3.44 V
2026-05-06 09:22:14 RF67 0.07% 17.4% 101% 65 3.44 V
2026-05-06 09:21:52 8e30 1.18% 7.0% 101% 821638 4.3 V
2026-05-06 09:21:52 8e30 1.18% 7.0% 101% 821638 4.3 V
2026-05-06 09:21:30 Gert 2.35% 9.7% 101% 235404 4.2 V
2026-05-06 09:21:28 Gert 2.35% 9.7% 101% 235404 4.2 V
2026-05-06 09:21:28 Gert 2.35% 9.7% 101% 235404 4.2 V
2026-05-06 09:21:27 Gert 2.35% 9.7% 101% 235404 4.2 V
2026-05-06 09:21:26 LAM2 0.1% 10.6% 101% 238 4.3 V
2026-05-06 09:21:26 LAM2 0.1% 10.6% 101% 238 4.3 V
2026-05-06 09:21:25 Gert 2.35% 9.7% 101% 235404 4.2 V
2026-05-06 09:21:25 Gert 2.35% 9.7% 101% 235404 4.2 V
2026-05-06 09:21:25 Gert 2.35% 9.7% 101% 235404 4.2 V
2026-05-06 09:21:23 LAM2 0.1% 10.6% 101% 238 4.3 V
2026-05-06 09:21:23 LAM2 0.1% 10.6% 101% 238 4.3 V
2026-05-06 09:21:21 LAM2 0.1% 10.6% 101% 238 4.3 V
2026-05-06 09:21:18 LAM2 0.1% 10.6% 101% 238 4.3 V
2026-05-06 09:20:56 LAM2 0.1% 10.6% 101% 238 4.3 V
2026-05-06 09:20:56 LAM2 0.1% 10.6% 101% 238 4.3 V
2026-05-06 09:20:56 LAM2 0.1% 10.6% 101% 238 4.3 V
2026-05-06 09:20:56 LAM2 0.1% 10.6% 101% 238 4.3 V
2026-05-06 09:19:45 ah03 1014.5 hPa 88.27% 17.17°C
2026-05-06 09:19:45 ah03 1014.5 hPa 88.27% 17.17°C
2026-05-06 09:19:42 ah03 1014.5 hPa 88.27% 17.17°C
2026-05-06 09:19:42 ah03 1014.5 hPa 88.27% 17.17°C
2026-05-06 09:19:42 ah03 1014.5 hPa 88.27% 17.17°C
2026-05-06 09:19:41 ah03 1014.5 hPa 88.27% 17.17°C
2026-05-06 09:19:41 ah03 1014.5 hPa 88.27% 17.17°C
2026-05-06 09:18:31 IIXF 849.34 hPa 38.47% 23.08°C 229.64 Ohm
2026-05-06 09:18:30 IIXF 849.34 hPa 38.47% 23.08°C 229.64 Ohm
2026-05-06 09:18:24 HT77 869.47 hPa 45.98% 27.44°C
2026-05-06 09:18:23 HT77 869.47 hPa 45.98% 27.44°C
2026-05-06 09:18:03 IIXF 0.63% 0.6% 101% 168549 4.28 V
2026-05-06 09:18:03 IIXF 0.63% 0.6% 101% 168549 4.28 V
2026-05-06 09:17:58 SMWS 0.98% 1.9% 35% 686386 3.59 V
2026-05-06 09:17:58 SMWS 0.98% 1.9% 35% 686386 3.59 V
2026-05-06 09:16:13 LRX1 1.63% 8.7% 84% 39975 4.01 V
2026-05-06 09:16:13 LRX1 1.63% 8.7% 84% 39975 4.01 V
2026-05-06 09:16:13 LRX1 1.63% 8.7% 84% 39975 4.01 V
2026-05-06 09:16:11 LRX1 1.63% 8.7% 84% 39975 4.01 V
2026-05-06 09:16:10 LRX1 1.63% 8.7% 84% 39975 4.01 V
2026-05-06 09:16:09 LRX1 1.63% 8.7% 84% 39975 4.01 V
2026-05-06 09:15:42 JR70 0.22% 80% 6053242 3.99 V
2026-05-06 09:15:42 JR70 0.22% 80% 6053242 3.99 V
2026-05-06 09:15:19 PTRH 0.29% 0.0% 60% 849234 3.81 V
2026-05-06 09:15:18 PTRH 0.29% 0.0% 60% 849234 3.81 V
2026-05-06 09:14:51 HT77 0.36% 3.2% 101% 865177 4.29 V
2026-05-06 09:14:51 HT77 0.36% 3.2% 101% 865177 4.29 V
2026-05-06 09:14:43 LRX1 1009.23 hPa 58.06% 21.5°C
2026-05-06 09:14:43 LRX1 1009.23 hPa 58.06% 21.5°C
2026-05-06 09:14:43 LRX1 1009.23 hPa 58.06% 21.5°C
2026-05-06 09:14:42 RX01 0.02% 0.0% 101% 4398 0.0 V
2026-05-06 09:14:42 RX01 0.02% 0.0% 101% 4398 0.0 V
2026-05-06 09:14:42 LRX1 1009.23 hPa 58.06% 21.5°C
2026-05-06 09:14:41 LRX1 1009.23 hPa 58.06% 21.5°C
2026-05-06 09:14:40 LRX1 1009.23 hPa 58.06% 21.5°C
2026-05-06 09:14:39 LRX1 1009.23 hPa 58.06% 21.5°C
2026-05-06 09:14:12 LAM2 0.06% 10.4% 101% 178 4.26 V
2026-05-06 09:14:10 LAM2 0.06% 10.4% 101% 178 4.26 V
2026-05-06 09:14:10 LAM2 0.06% 10.4% 101% 178 4.26 V
2026-05-06 09:14:10 LAM2 0.06% 10.4% 101% 178 4.26 V
2026-05-06 09:14:07 LAM2 0.06% 10.4% 101% 178 4.26 V
2026-05-06 09:14:07 LAM2 0.06% 10.4% 101% 178 4.26 V
2026-05-06 09:14:07 LAM2 0.06% 10.4% 101% 178 4.26 V
2026-05-06 09:14:07 LAM2 0.06% 10.4% 101% 178 4.26 V
2026-05-06 09:14:06 DJMH 0.39% 0.0% 87% 6374219 4.03 V
2026-05-06 09:14:06 DJMH 0.39% 0.0% 87% 6374219 4.03 V
2026-05-06 09:11:06 RF67 1.7% 15.1% 101% 4746 3.45 V
2026-05-06 09:11:06 RF67 1.7% 15.1% 101% 4746 3.45 V
2026-05-06 09:11:05 RF67 1.7% 15.1% 101% 4746 3.45 V
2026-05-06 09:10:54 ah02 100.0% 16.85°C
2026-05-06 09:10:30 ah02 0.04% 11.6% 68% 61 3.88 V
2026-05-06 09:10:28 ah02 0.04% 11.6% 68% 61 3.88 V
2026-05-06 09:10:28 ah02 0.04% 11.6% 68% 61 3.88 V
2026-05-06 09:10:28 ah02 0.04% 11.6% 68% 61 3.88 V
2026-05-06 09:10:00 PMT2 1.23% 1.7% 101% 2771791 4.2 V
2026-05-06 09:09:59 PMT2 1.23% 1.7% 101% 2771791 4.2 V
2026-05-06 09:09:58 PMT2 1.23% 1.7% 101% 2771791 4.2 V
2026-05-06 09:09:35 Wdst 0.89% 4.5% 72% 4269767 3.92 V
2026-05-06 09:09:35 Wdst 0.89% 4.5% 72% 4269767 3.92 V
2026-05-06 09:09:35 Wdst 0.89% 4.5% 72% 4269767 3.92 V
2026-05-06 09:08:58 1808 2.13% 22.4% 101% 90174 -0.0 V
2026-05-06 09:08:58 1808 2.13% 22.4% 101% 90174 -0.0 V
2026-05-06 09:08:27 e536 0.28% 5.8% 92% 47461669 4.09 V
2026-05-06 09:07:36 2-D 0.35% 101% 12820381 4.22 V
2026-05-06 09:07:36 2-D 0.35% 101% 12820381 4.22 V
2026-05-06 09:07:27 ZS1G 0.07% 16.9% 101% 46 4.23 V
2026-05-06 09:07:00 7274 0.4% 0.0% 100% 7685324 4.11 V
2026-05-06 09:07:00 7274 0.4% 0.0% 100% 7685324 4.11 V
2026-05-06 09:06:35 ZS1G 0.07% 16.9% 101% 46 4.23 V
2026-05-06 09:06:35 ZS1G 0.07% 16.9% 101% 46 4.23 V
2026-05-06 09:06:31 ZS1G 0.07% 16.9% 101% 46 4.23 V
2026-05-06 09:06:29 ZS1G 0.07% 16.9% 101% 46 4.23 V
2026-05-06 09:06:28 ZS1G 0.07% 16.9% 101% 46 4.23 V
2026-05-06 09:06:20 ah03
2026-05-06 09:06:20 ah03
2026-05-06 09:06:14 ah03
2026-05-06 09:06:13 ah03
2026-05-06 09:06:13 ah03
2026-05-06 09:05:04 JR70 0.27% 81% 6052339 4.0 V
2026-05-06 09:05:04 JR70 0.27% 81% 6052339 4.0 V
2026-05-06 09:02:01 2369 0.94% 12.0% 47% 7446 3.69 V
2026-05-06 09:02:01 2369 0.94% 12.0% 47% 7446 3.69 V
2026-05-06 09:01:56 LMGB 0.06% 0.0% 101% 15190 -0.0 V
2026-05-06 09:01:56 LMGB 0.06% 0.0% 101% 15190 -0.0 V
2026-05-06 09:01:52 2369 0.94% 12.0% 47% 7446 3.69 V
2026-05-06 09:01:52 2369 0.94% 12.0% 47% 7446 3.69 V
2026-05-06 09:01:52 2369 0.94% 12.0% 47% 7446 3.69 V
2026-05-06 09:00:50 JR70 0.27% 81% 6052339 4.0 V
2026-05-06 09:00:50 JR70 0.27% 81% 6052339 4.0 V
2026-05-06 09:00:31 IIXF 849.18 hPa 37.14% 22.97°C 233.37 Ohm
2026-05-06 09:00:30 IIXF 849.18 hPa 37.14% 22.97°C 233.37 Ohm
2026-05-06 09:00:22 HT77 869.28 hPa 45.36% 27.8°C
2026-05-06 09:00:22 HT77 869.28 hPa 45.36% 27.8°C
2026-05-06 09:00:03 IIXF 0.64% 0.6% 101% 167469 4.28 V
2026-05-06 09:00:03 IIXF 0.64% 0.6% 101% 167469 4.28 V
2026-05-06 08:59:27 SMWS 0.98% 0.0% 35% 685279 3.58 V
2026-05-06 08:59:26 SMWS 0.98% 0.0% 35% 685279 3.58 V
2026-05-06 08:59:26 SMWS 0.98% 0.0% 35% 685279 3.58 V
2026-05-06 08:57:50 MELK 0.07% 0.0% 96% 4323771 4.14 V
2026-05-06 08:57:48 MELK 0.07% 0.0% 96% 4323771 4.14 V
2026-05-06 08:57:44 MELK 0.07% 0.0% 96% 4323771 4.14 V
2026-05-06 08:57:41 MELK 0.07% 0.0% 96% 4323771 4.14 V
2026-05-06 08:57:41 MELK 0.07% 0.0% 96% 4323771 4.14 V
2026-05-06 08:57:38 MELK 0.07% 0.0% 96% 4323771 4.14 V
2026-05-06 08:57:38 MELK 0.07% 0.0% 96% 4323771 4.14 V
2026-05-06 08:57:38 MELK 0.07% 0.0% 96% 4323771 4.14 V
2026-05-06 08:57:29 PcL1 0.11% 0.0% 97% 49866 4.16 V
2026-05-06 08:57:29 PcL1 0.11% 0.0% 97% 49866 4.16 V
2026-05-06 08:56:52 HT77 0.36% 0.0% 101% 864097 4.29 V
2026-05-06 08:56:52 HT77 0.36% 0.0% 101% 864097 4.29 V
2026-05-06 08:55:54 2625 0.11% 0.0% 100% 811924 4.19 V
2026-05-06 08:55:53 2625 0.11% 0.0% 100% 811924 4.19 V
2026-05-06 08:55:05 976c 0.55% 0.0% 101% 4570397 4.22 V
2026-05-06 08:55:04 976c 0.55% 0.0% 101% 4570397 4.22 V
2026-05-06 08:52:23 DOS 1.85% 2.2% 100% 168802 4.19 V
2026-05-06 08:52:19 DOS 1.85% 2.2% 100% 168802 4.19 V
2026-05-06 08:52:19 DOS 1.85% 2.2% 100% 168802 4.19 V
2026-05-06 08:51:08 RF06 0.81% 8.7% 101% 168132 6.31 V
2026-05-06 08:51:08 RF06 0.81% 8.7% 101% 168132 6.31 V
2026-05-06 08:51:03 RF06 0.81% 8.7% 101% 168132 6.31 V
2026-05-06 08:51:03 RF06 0.81% 8.7% 101% 168132 6.31 V
2026-05-06 08:51:03 RF06 0.81% 8.7% 101% 168132 6.31 V
2026-05-06 08:50:42 LAM2 1.26% 0.0% 101% 90006 4.24 V
2026-05-06 08:50:40 LAM2 1.26% 0.0% 101% 90006 4.24 V
2026-05-06 08:50:40 LAM2 1.26% 0.0% 101% 90006 4.24 V
2026-05-06 08:50:38 LAM2 1.26% 0.0% 101% 90006 4.24 V
2026-05-06 08:50:31 LAM2 1.26% 0.0% 101% 90006 4.24 V
2026-05-06 08:50:31 LAM2 1.26% 0.0% 101% 90006 4.24 V
2026-05-06 08:50:30 LAM2 1.26% 0.0% 101% 90006 4.24 V
2026-05-06 08:50:30 LAM2 1.26% 0.0% 101% 90006 4.24 V
2026-05-06 08:49:27 HAM2 2.39% 8.4% 90% 1089209 4.05 V
2026-05-06 08:49:27 HAM2 2.39% 8.4% 90% 1089209 4.05 V
2026-05-06 08:49:27 HAM2 2.39% 8.4% 90% 1089209 4.05 V
2026-05-06 08:49:26 HAM2 2.39% 8.4% 90% 1089209 4.05 V
2026-05-06 08:49:26 HAM2 2.39% 8.4% 90% 1089209 4.05 V
2026-05-06 08:49:26 HAM2 2.39% 8.4% 90% 1089209 4.05 V
2026-05-06 08:48:01 ZS1G 0.09% 14.9% 101% 46 4.2 V
2026-05-06 08:47:59 ZS1G 0.09% 14.9% 101% 46 4.2 V
2026-05-06 08:47:26 ZS1G 0.09% 14.9% 101% 46 4.2 V
2026-05-06 08:47:25 ZS1G 0.09% 14.9% 101% 46 4.2 V
2026-05-06 08:47:19 ZS1G 0.09% 14.9% 101% 46 4.2 V
2026-05-06 08:47:18 ZS1G 0.09% 14.9% 101% 46 4.2 V
2026-05-06 08:47:17 ZS1G 0.09% 14.9% 101% 46 4.2 V
2026-05-06 08:46:49 RLSC 999.35 hPa 76.5% 13.09°C
2026-05-06 08:46:49 RLSC 999.35 hPa 76.5% 13.09°C
2026-05-06 08:46:20 LRX1 1.31% 3.3% 85% 38175 4.02 V
2026-05-06 08:46:19 LRX1 1.31% 3.3% 85% 38175 4.02 V
2026-05-06 08:46:19 LRX1 1.31% 3.3% 85% 38175 4.02 V
2026-05-06 08:46:18 LRX1 1.31% 3.3% 85% 38175 4.02 V
2026-05-06 08:46:15 LRX1 1.31% 3.3% 85% 38175 4.02 V
2026-05-06 08:46:14 LRX1 1.31% 3.3% 85% 38175 4.02 V
2026-05-06 08:45:55 PMT2 1.05% 3.5% 101% 2770351 4.2 V
2026-05-06 08:45:55 PMT2 1.05% 3.5% 101% 2770351 4.2 V
2026-05-06 08:45:53 PMT2 1.05% 3.5% 101% 2770351 4.2 V
2026-05-06 08:45:51 PMT2 1.05% 3.5% 101% 2770351 4.2 V
2026-05-06 08:45:51 PMT2 1.05% 3.5% 101% 2770351 4.2 V
2026-05-06 08:45:39 JR70 0.26% 91% 6051436 4.07 V
2026-05-06 08:45:39 JR70 0.26% 91% 6051436 4.07 V
2026-05-06 08:45:25 LMBr 2.32% 11.9% 93% 3750930 4.09 V
2026-05-06 08:45:25 LMBr 2.32% 11.9% 93% 3750930 4.09 V
2026-05-06 08:45:12 LRX1 1009.09 hPa 58.51% 21.1°C
2026-05-06 08:44:45 LRX1 1009.09 hPa 58.51% 21.1°C
2026-05-06 08:44:45 LRX1 1009.09 hPa 58.51% 21.1°C
2026-05-06 08:44:43 LRX1 1009.09 hPa 58.51% 21.1°C
2026-05-06 08:44:43 LRX1 1009.09 hPa 58.51% 21.1°C
2026-05-06 08:44:43 LRX1 1009.09 hPa 58.51% 21.1°C
2026-05-06 08:44:42 LRX1 1009.09 hPa 58.51% 21.1°C
2026-05-06 08:44:11 DJMH 0.46% 0.0% 85% 6372419 4.02 V
2026-05-06 08:44:11 DJMH 0.46% 0.0% 85% 6372419 4.02 V
2026-05-06 08:42:31 IIXF 849.38 hPa 38.63% 22.94°C 233.37 Ohm
2026-05-06 08:42:30 IIXF 849.38 hPa 38.63% 22.94°C 233.37 Ohm
2026-05-06 08:42:03 IIXF 0.73% 0.0% 101% 166389 4.28 V
2026-05-06 08:42:03 IIXF 0.73% 0.0% 101% 166389 4.28 V
2026-05-06 08:41:35 PMT2 22.28°C
2026-05-06 08:41:34 PMT2 22.28°C
2026-05-06 08:41:21 PMT2 22.28°C
2026-05-06 08:41:21 PMT2 22.28°C
2026-05-06 08:41:15 RF67 1.04% 2.3% 101% 2945 3.45 V
2026-05-06 08:41:15 SMWS 0.93% 3.8% 33% 684147 3.57 V
2026-05-06 08:41:15 RF67 1.04% 2.3% 101% 2945 3.45 V
2026-05-06 08:41:14 SMWS 0.93% 3.8% 33% 684147 3.57 V
2026-05-06 08:41:13 RF67 1.04% 2.3% 101% 2945 3.45 V
2026-05-06 08:41:13 RF67 1.04% 2.3% 101% 2945 3.45 V
2026-05-06 08:41:04 RF67 1.04% 2.3% 101% 2945 3.45 V
2026-05-06 08:41:04 RF67 1.04% 2.3% 101% 2945 3.45 V
2026-05-06 08:41:03 RF67 1.04% 2.3% 101% 2945 3.45 V
2026-05-06 08:39:18 PTRH 0.3% 0.0% 55% 847074 3.77 V
2026-05-06 08:39:18 PTRH 0.3% 0.0% 55% 847074 3.77 V
2026-05-06 08:38:52 HT77 0.36% 0.9% 101% 863017 4.28 V
2026-05-06 08:38:52 HT77 0.36% 0.9% 101% 863017 4.28 V
2026-05-06 08:38:41 RX01 0.04% 0.0% 101% 2236 0.0 V
2026-05-06 08:38:41 RX01 0.04% 0.0% 101% 2236 0.0 V
2026-05-06 08:38:30 LUK5 0.94% 2.0% 101% 244843 4.28 V
2026-05-06 08:38:30 LUK5 0.94% 2.0% 101% 244843 4.28 V
2026-05-06 08:37:39 2-D 0.36% 101% 12818580 4.2 V
2026-05-06 08:37:38 2-D 0.36% 101% 12818580 4.2 V
2026-05-06 08:36:53 htec 4.29% 4.3% 101% 38067 4.26 V
2026-05-06 08:36:53 htec 4.29% 4.3% 101% 38067 4.26 V
2026-05-06 08:36:39 GTB 0.08% 13.7% 101% 88 4.18 V
2026-05-06 08:36:39 GTB 0.08% 13.7% 101% 88 4.18 V
2026-05-06 08:35:21 ah03
2026-05-06 08:35:20 ah03
2026-05-06 08:35:20 ah03
2026-05-06 08:35:15 ah03
2026-05-06 08:35:14 ah03
2026-05-06 08:35:14 ah03
2026-05-06 08:33:29 21a9 1018.03 hPa 43.77% 16.46°C
2026-05-06 08:33:28 21a9 1018.03 hPa 43.77% 16.46°C
2026-05-06 08:33:03 21a9 0.15% 0.0% 70% 676940 3.89 V
2026-05-06 08:33:02 21a9 0.15% 0.0% 70% 676940 3.89 V
2026-05-06 08:31:57 MRB1 1.37% 7.5% 101% 57274 4.28 V
2026-05-06 08:31:56 MRB1 1.37% 7.5% 101% 57274 4.28 V
2026-05-06 08:31:55 MRB1 1.37% 7.5% 101% 57274 4.28 V
2026-05-06 08:31:54 MRB1 1.37% 7.5% 101% 57274 4.28 V
2026-05-06 08:31:52 MRB1 1.37% 7.5% 101% 57274 4.28 V
2026-05-06 08:31:52 MRB1 1.37% 7.5% 101% 57274 4.28 V
2026-05-06 08:31:00 7274 0.53% 0.0% 100% 7683163 4.11 V
2026-05-06 08:30:59 7274 0.53% 0.0% 100% 7683163 4.11 V
2026-05-06 08:30:33 JR70 0.26% 85% 6050533 4.02 V
2026-05-06 08:30:33 JR70 0.26% 85% 6050533 4.02 V
2026-05-06 08:30:04 ah01 1.73% 0.0% 94% 1828219 4.11 V
Visit MeshInfo-Lite on Github. Also visit the original MeshInfo by Kevin Elliott.